map of AAR home
AAR - Airport
Location
City:  Århus, Denmark
Near (Alt.):Aarhus
Name:Tirstrup
ICAO:EKAH
IATA:AAR

Details
Type:Airport (Aerodrome, Airfield)
Latitude:56°18'00"N (56.300017)
Longitude:10°37'08"E (10.619008)
Elevation:82 ft (25 m)
Variation:3.41°E (WMM2015v2 magnetic declination)
0.19° annual change
Runways:2
Longest:9111 × 75 ft (2777 × 23 m), paved

Time
Time Zone:UTC+1 (DST+2)
Local Time:

Weather
METAR:EKAH 041350Z AUTO 19007KT 120V240 9000NDV BKN007/// BKN047/// 03/02 Q1016
TAF:EKAH 041101Z 0412/0512 19013KT 6000 BKN005
TEMPO 0412/0424 20018G35KT 4000 RASNDZ OVC003
FM050300 23015KT 9999 BKN020
TEMPO 0503/0512 25015G25KT 4500 SHRA BKN012CB

Related Locations
Nearby:
Farthest:CHT: 11513 mi / 18529 km
Waitangi [Tuuta], CIT, NZ

Find:

   beyond  
but within

Other Information
Maps:
NOTAMs:
Links:
Sources:

  
  • flag of Denmark
  

Sectional Chart

Flight Planning
at skyvector.com

Satellite Image

Google Maps Satellite view

 

Copyright © 2004-2019 Karl L. Swartz. All rights reserved.
The Great Circle Mapper name and logo are trademarks of the Great Circle Mapper.
All other trademarks mentioned herein belong to their respective owners.
Please see credits for attibutions and further copyright information.

  Follow gcmap on Facebook Follow gcmap on Twitter GCmap on LinkedIn

hCard Microformat

Geo Microformat